^^
Saratoga-Weather Station Historical Data
Daily Summary for July 7, 2021 Units:  English    Metric   Both
Daily Weekly Monthly Yearly Custom
  High: Low: Average:
Temperature: 56.8 °F 48.7 °F 51.3 °F
Dew Point: 53.1 °F 47.3 °F 49.6 °F
Humidity: 96% 84% 94%
Wind Speed: 6.9mph 0mph 1mph
Wind Gust: 8mph - -
Wind- - SW
Pressure: 30.3 in 30.2 in -
Precipitation: 0 in    
Historical Graphs
 
 
Tabular Data for July 7, 2021
Time Temperature Dew Point Pressure Wind Wind Speed Wind Gust Humidity Rainfall Rate (Hourly) solar
00:01 51.1 °F 49.1 °F 30.2 in West 2.9 mph 7 mph 93% 0 in 0 W/m2
00:07 51.1 °F 49.1 °F 30.2 in WNW 4 mph 7 mph 93% 0 in 0 W/m2
00:12 50.9 °F 49.3 °F 30.2 in West 4 mph 7 mph 94% 0 in 0 W/m2
00:17 50.9 °F 49.3 °F 30.2 in West 6 mph 8 mph 94% 0 in 0 W/m2
00:22 50.9 °F 49.3 °F 30.2 in NW 2.9 mph 7 mph 94% 0 in 0 W/m2
00:27 51.1 °F 49.5 °F 30.2 in West 2.9 mph 8 mph 94% 0 in 0 W/m2
00:32 51.3 °F 49.3 °F 30.2 in West 6.9 mph 7 mph 93% 0 in 0 W/m2
00:37 51.3 °F 49.3 °F 30.2 in WNW 2 mph 6 mph 93% 0 in 0 W/m2
00:42 51.4 °F 49.5 °F 30.2 in WSW 0.9 mph 3 mph 93% 0 in 0 W/m2
00:47 51.4 °F 49.5 °F 30.2 in West 2 mph 6 mph 93% 0 in 0 W/m2
00:52 51.4 °F 49.5 °F 30.2 in West 2 mph 2 mph 93% 0 in 0 W/m2
00:57 51.3 °F 49.3 °F 30.2 in West 0.9 mph 3 mph 93% 0 in 0 W/m2
01:02 51.3 °F 49.3 °F 30.2 in West 2 mph 3 mph 93% 0 in 0 W/m2
01:07 51.3 °F 49.3 °F 30.2 in WNW 0.9 mph 3 mph 93% 0 in 0 W/m2
01:12 51.3 °F 49.3 °F 30.2 in WNW 2 mph 2 mph 93% 0 in 0 W/m2
01:17 51.3 °F 49.3 °F 30.2 in Calm   1 mph 93% 0 in 0 W/m2
01:22 51.3 °F 49.6 °F 30.2 in Calm     94% 0 in 0 W/m2
01:27 51.3 °F 49.6 °F 30.2 in Calm   1 mph 94% 0 in 0 W/m2
01:32 51.1 °F 49.5 °F 30.2 in Calm   2 mph 94% 0 in 0 W/m2
01:37 51.1 °F 49.5 °F 30.2 in Calm   1 mph 94% 0 in 0 W/m2
01:42 51.1 °F 49.5 °F 30.2 in Calm   2 mph 94% 0 in 0 W/m2
01:47 51.1 °F 49.5 °F 30.2 in Calm     94% 0 in 0 W/m2
01:52 51.1 °F 49.5 °F 30.2 in WNW 0.9 mph 2 mph 94% 0 in 0 W/m2
01:57 51.1 °F 49.5 °F 30.2 in Calm     94% 0 in 0 W/m2
02:02 51.1 °F 49.5 °F 30.2 in Calm   2 mph 94% 0 in 0 W/m2
02:07 51.1 °F 49.5 °F 30.2 in Calm   1 mph 94% 0 in 0 W/m2
02:12 51.1 °F 49.5 °F 30.2 in Calm   2 mph 94% 0 in 0 W/m2
02:17 51.1 °F 49.5 °F 30.2 in West 2 mph 2 mph 94% 0 in 0 W/m2
02:22 51.1 °F 49.5 °F 30.2 in Calm   1 mph 94% 0 in 0 W/m2
02:27 50.9 °F 49.3 °F 30.2 in WSW 0.9 mph 3 mph 94% 0 in 0 W/m2
02:32 50.9 °F 49.5 °F 30.2 in WNW 0.9 mph 2 mph 95% 0 in 0 W/m2
02:37 50.9 °F 49.5 °F 30.2 in WSW 2 mph 4 mph 95% 0 in 0 W/m2
02:42 50.9 °F 49.5 °F 30.2 in West 0.9 mph 2 mph 95% 0 in 0 W/m2
02:47 50.9 °F 49.5 °F 30.2 in West 0.9 mph 2 mph 95% 0 in 0 W/m2
02:52 50.9 °F 49.5 °F 30.2 in West 0.9 mph 3 mph 95% 0 in 0 W/m2
02:57 51.1 °F 49.6 °F 30.2 in West 2.9 mph 6 mph 95% 0 in 0 W/m2
03:02 51.1 °F 49.6 °F 30.2 in WSW 2 mph 3 mph 95% 0 in 0 W/m2
03:07 51.1 °F 49.6 °F 30.2 in WNW 2.9 mph 5 mph 95% 0 in 0 W/m2
03:12 51.3 °F 49.8 °F 30.2 in West 4 mph 6 mph 95% 0 in 0 W/m2
03:17 51.3 °F 49.8 °F 30.2 in West 0.9 mph 6 mph 95% 0 in 0 W/m2
03:22 51.4 °F 49.8 °F 30.2 in WSW 0.9 mph 4 mph 94% 0 in 0 W/m2
03:27 51.4 °F 49.8 °F 30.2 in West 4 mph 6 mph 94% 0 in 0 W/m2
03:32 51.4 °F 49.8 °F 30.2 in West 2.9 mph 4 mph 94% 0 in 0 W/m2
03:37 51.4 °F 49.8 °F 30.2 in WNW 2.9 mph 5 mph 94% 0 in 0 W/m2
03:42 51.3 °F 49.6 °F 30.2 in West 2.9 mph 4 mph 94% 0 in 0 W/m2
03:47 51.3 °F 49.8 °F 30.2 in SW 4 mph 4 mph 95% 0 in 0 W/m2
03:52 51.3 °F 49.8 °F 30.2 in WSW 2 mph 3 mph 95% 0 in 0 W/m2
03:57 51.3 °F 49.6 °F 30.2 in Calm   2 mph 94% 0 in 0 W/m2
04:02 51.3 °F 49.6 °F 30.2 in WSW 2.9 mph 3 mph 94% 0 in 0 W/m2
04:07 51.1 °F 49.5 °F 30.2 in Calm     94% 0 in 0 W/m2
04:12 50.9 °F 49.3 °F 30.2 in Calm   1 mph 94% 0 in 0 W/m2
04:17 50.7 °F 49.1 °F 30.2 in Calm   3 mph 94% 0 in 0 W/m2
04:22 50.5 °F 48.9 °F 30.2 in West 0.9 mph 1 mph 94% 0 in 0 W/m2
04:27 50.5 °F 49.1 °F 30.2 in West 2 mph 3 mph 95% 0 in 0 W/m2
04:32 50.7 °F 49.3 °F 30.2 in West 0.9 mph 2 mph 95% 0 in 0 W/m2
04:37 50.7 °F 49.3 °F 30.2 in West 0.9 mph 3 mph 95% 0 in 0 W/m2
04:42 50.9 °F 49.5 °F 30.2 in WNW 0.9 mph 2 mph 95% 0 in 0 W/m2
04:47 50.9 °F 49.5 °F 30.2 in WNW 2 mph 2 mph 95% 0 in 0 W/m2
04:52 50.9 °F 49.5 °F 30.2 in WNW 0.9 mph 2 mph 95% 0 in 0 W/m2
04:57 50.9 °F 49.5 °F 30.2 in West 2 mph 3 mph 95% 0 in 0 W/m2
05:02 50.9 °F 49.5 °F 30.2 in NW 2 mph 3 mph 95% 0 in 0 W/m2
05:07 50.9 °F 49.5 °F 30.2 in Calm   2 mph 95% 0 in 0 W/m2
05:12 50.9 °F 49.5 °F 30.3 in Calm   2 mph 95% 0 in 0 W/m2
05:17 51.1 °F 49.6 °F 30.2 in West 0.9 mph 2 mph 95% 0 in 0 W/m2
05:22 50.9 °F 49.5 °F 30.2 in WSW 0.9 mph 4 mph 95% 0 in 0 W/m2
05:27 50.9 °F 49.5 °F 30.2 in West 2 mph 2 mph 95% 0 in 0 W/m2
05:32 50.7 °F 49.3 °F 30.3 in West 2 mph 3 mph 95% 0 in 0 W/m2
05:37 50.7 °F 49.3 °F 30.3 in West 0.9 mph 3 mph 95% 0 in 0 W/m2
05:42 50.5 °F 49.1 °F 30.3 in WSW 0.9 mph 2 mph 95% 0 in 0 W/m2
05:47 50.4 °F 48.9 °F 30.3 in Calm   2 mph 95% 0 in 0 W/m2
05:52 50.2 °F 48.7 °F 30.3 in Calm     95% 0 in 0 W/m2
05:57 50.2 °F 48.7 °F 30.3 in WSW 0.9 mph 3 mph 95% 0 in 0 W/m2
06:02 50.2 °F 48.7 °F 30.3 in West 0.9 mph 2 mph 95% 0 in 0 W/m2
06:07 50.2 °F 48.7 °F 30.3 in West 2 mph 2 mph 95% 0 in 0 W/m2
06:12 50.2 °F 48.7 °F 30.3 in West 0.9 mph 2 mph 95% 0 in 0 W/m2
06:17 50.2 °F 48.7 °F 30.3 in West 2 mph 2 mph 95% 0 in 0 W/m2
06:22 50.2 °F 48.7 °F 30.3 in West 2 mph 3 mph 95% 0 in 0 W/m2
06:27 50 °F 48.6 °F 30.3 in West 0.9 mph 2 mph 95% 0 in 0 W/m2
06:32 49.8 °F 48.4 °F 30.3 in West 2 mph 3 mph 95% 0 in 0 W/m2
06:37 49.8 °F 48.4 °F 30.3 in Calm   1 mph 95% 0 in 0 W/m2
06:42 49.6 °F 48.2 °F 30.3 in Calm     95% 0 in 0 W/m2
06:47 49.6 °F 48.2 °F 30.3 in Calm     95% 0 in 0 W/m2
06:52 49.6 °F 48.2 °F 30.3 in Calm     95% 0 in 0 W/m2
06:58 49.5 °F 48 °F 30.3 in Calm     95% 0 in 0 W/m2
07:03 49.3 °F 47.8 °F 30.3 in Calm     95% 0 in 0 W/m2
07:08 49.3 °F 47.8 °F 30.3 in Calm     95% 0 in 0 W/m2
07:13 49.1 °F 47.7 °F 30.3 in Calm     95% 0 in 0 W/m2
07:18 48.9 °F 47.5 °F 30.3 in Calm     95% 0 in 0 W/m2
07:23 48.7 °F 47.3 °F 30.3 in Calm     95% 0 in 0 W/m2
07:28 48.7 °F 47.3 °F 30.3 in Calm     95% 0 in 0 W/m2
07:33 48.7 °F 47.3 °F 30.3 in Calm     95% 0 in 0 W/m2
07:38 48.7 °F 47.3 °F 30.3 in Calm     95% 0 in 0 W/m2
07:43 48.7 °F 47.7 °F 30.3 in Calm     96% 0 in 0 W/m2
07:48 48.9 °F 47.8 °F 30.3 in Calm     96% 0 in 0 W/m2
07:53 48.9 °F 47.8 °F 30.3 in Calm     96% 0 in 0 W/m2
07:58 48.9 °F 47.8 °F 30.3 in Calm     96% 0 in 0 W/m2
08:03 49.1 °F 48 °F 30.3 in Calm     96% 0 in 5 W/m2
08:08 49.3 °F 48.2 °F 30.3 in WSW 0.9 mph 2 mph 96% 0 in 9 W/m2
08:13 49.5 °F 48.4 °F 30.3 in SE 0.9 mph 2 mph 96% 0 in 11 W/m2
08:18 49.5 °F 48.4 °F 30.3 in Calm   2 mph 96% 0 in 14 W/m2
08:23 49.6 °F 48.6 °F 30.3 in Calm     96% 0 in 16 W/m2
08:28 49.6 °F 48.6 °F 30.3 in Calm   2 mph 96% 0 in 21 W/m2
08:33 49.6 °F 48.6 °F 30.3 in Calm     96% 0 in 25 W/m2
08:38 49.8 °F 48.7 °F 30.3 in Calm     96% 0 in 28 W/m2
08:43 49.8 °F 48.7 °F 30.3 in Calm     96% 0 in 30 W/m2
08:48 50 °F 48.9 °F 30.3 in Calm     96% 0 in 35 W/m2
08:53 50.2 °F 49.1 °F 30.3 in Calm     96% 0 in 46 W/m2
08:58 50.2 °F 49.1 °F 30.3 in Calm     96% 0 in 58 W/m2
09:03 50.4 °F 49.3 °F 30.3 in Calm     96% 0 in 58 W/m2
09:08 50.4 °F 49.3 °F 30.3 in Calm   2 mph 96% 0 in 60 W/m2
09:13 50.5 °F 49.5 °F 30.3 in ENE 0.9 mph 1 mph 96% 0 in 65 W/m2
09:18 50.5 °F 49.5 °F 30.3 in East 2 mph 2 mph 96% 0 in 130 W/m2
09:23 50.5 °F 49.5 °F 30.3 in East 0.9 mph 1 mph 96% 0 in 93 W/m2
09:28 50.7 °F 49.6 °F 30.3 in Calm   2 mph 96% 0 in 102 W/m2
09:33 50.9 °F 49.8 °F 30.3 in NE 2 mph 3 mph 96% 0 in 93 W/m2
09:38 51.1 °F 50 °F 30.3 in Calm   2 mph 96% 0 in 107 W/m2
09:43 51.3 °F 50.2 °F 30.3 in East 0.9 mph 2 mph 96% 0 in 111 W/m2
09:48 51.4 °F 50.4 °F 30.3 in NE 0.9 mph 2 mph 96% 0 in 121 W/m2
09:53 51.4 °F 50.4 °F 30.3 in NE 0.9 mph 1 mph 96% 0 in 128 W/m2
09:58 51.6 °F 50.5 °F 30.3 in NE 0.9 mph 2 mph 96% 0 in 90 W/m2
10:03 51.8 °F 50.7 °F 30.3 in Calm     96% 0 in 58 W/m2
10:08 52 °F 50.9 °F 30.3 in Calm   2 mph 96% 0 in 54 W/m2
10:14 52 °F 50.5 °F 30.3 in Calm     95% 0 in 77 W/m2
10:19 52 °F 50.5 °F 30.3 in Calm   1 mph 95% 0 in 77 W/m2
10:24 52.2 °F 50.7 °F 30.3 in NE 0.9 mph 2 mph 95% 0 in 81 W/m2
10:29 52.2 °F 50.7 °F 30.3 in Calm     95% 0 in 77 W/m2
10:34 52.3 °F 50.9 °F 30.3 in Calm   2 mph 95% 0 in 79 W/m2
10:39 52.3 °F 50.9 °F 30.3 in Calm     95% 0 in 76 W/m2
10:44 52.5 °F 51.1 °F 30.3 in Calm     95% 0 in 86 W/m2
10:49 52.7 °F 51.1 °F 30.3 in Calm     94% 0 in 114 W/m2
10:54 52.9 °F 51.3 °F 30.3 in Calm   1 mph 94% 0 in 155 W/m2
10:59 53.1 °F 51.4 °F 30.3 in Calm     94% 0 in 334 W/m2
11:04 53.4 °F 51.8 °F 30.3 in North 2 mph 3 mph 94% 0 in 656 W/m2
11:09 54.1 °F 52.5 °F 30.3 in WSW 2.9 mph 4 mph 94% 0 in 636 W/m2
11:14 54.7 °F 52.7 °F 30.3 in WNW 0.9 mph 2 mph 93% 0 in 322 W/m2
11:19 55 °F 52.7 °F 30.3 in WNW 0.9 mph 1 mph 92% 0 in 582 W/m2
11:24 55.6 °F 53.1 °F 30.3 in NNE 0.9 mph 2 mph 91% 0 in 188 W/m2
11:29 55.8 °F 52.5 °F 30.3 in NNW 0.9 mph 3 mph 89% 0 in 130 W/m2
11:34 55.6 °F 52.3 °F 30.3 in South 0.9 mph 2 mph 89% 0 in 135 W/m2
11:39 55.6 °F 52.3 °F 30.3 in NNW 0.9 mph 3 mph 89% 0 in 125 W/m2
11:44 55.4 °F 52.2 °F 30.3 in ENE 0.9 mph 3 mph 89% 0 in 125 W/m2
11:49 55.2 °F 51.8 °F 30.3 in Calm   3 mph 88% 0 in 172 W/m2
11:54 55.2 °F 51.8 °F 30.3 in NE 0.9 mph 2 mph 88% 0 in 207 W/m2
11:59 55.6 °F 52.2 °F 30.3 in Calm   1 mph 88% 0 in 334 W/m2
12:04 55.8 °F 52.3 °F 30.3 in Calm   2 mph 88% 0 in 287 W/m2
12:09 56.1 °F 51.6 °F 30.3 in East 2 mph 4 mph 85% 0 in 197 W/m2
12:14 56.5 °F 52 °F 30.3 in West 0.9 mph 3 mph 85% 0 in 225 W/m2
12:19 56.5 °F 52 °F 30.3 in East 0.9 mph 4 mph 85% 0 in 239 W/m2
12:24 56.5 °F 51.6 °F 30.3 in ENE 0.9 mph 1 mph 84% 0 in 260 W/m2
12:29 56.8 °F 52 °F 30.3 in Calm   4 mph 84% 0 in 478 W/m2
Juneau County Weather
Compliments of Weather Underground - 2 mb